Time;durP1;ratioP1;P1;durP2;ratioP2;P2;SDS_P1;SDS_P2;PMS_P1;PMS_P2;Temp;Humidity;BMP_temperature;BMP_pressure;BME280_temperature;BME280_humidity;BME280_pressure;Samples;Min_cycle;Max_cycle;Signal;HPM_P1;HPM_P2
2022/02/11 00:09:06;;;;;;;2.72;2.22;;;7.40;99.90;;;;;;5067849;28;20215;-52
2022/02/11 00:11:36;;;;;;;2.00;1.88;;;7.30;99.90;;;;;;5065736;28;20253;-52
2022/02/11 00:14:05;;;;;;;2.35;2.15;;;7.30;99.90;;;;;;5072417;28;20283;-53
2022/02/11 00:16:34;;;;;;;1.73;1.63;;;7.00;99.90;;;;;;5068382;28;20241;-56
2022/02/11 00:19:01;;;;;;;2.75;2.08;;;6.90;99.90;;;;;;5071555;28;20195;-50
2022/02/11 00:21:29;;;;;;;2.50;2.30;;;6.80;99.90;;;;;;5066809;28;20200;-51
2022/02/11 00:23:57;;;;;;;3.60;2.25;;;6.90;99.90;;;;;;5075015;28;20558;-52
2022/02/11 00:26:31;;;;;;;1.70;1.60;;;7.10;99.90;;;;;;5071404;28;20207;-54
2022/02/11 00:34:43;;;;;;;2.65;2.45;;;7.20;99.90;;;;;;5069145;28;20230;-55
2022/02/11 00:37:17;;;;;;;3.22;2.53;;;7.20;99.90;;;;;;5068915;28;20203;-50
2022/02/11 01:06:10;;;;;;;5.53;4.18;;;7.40;99.90;;;;;;5065025;28;20203;-55
2022/02/11 01:08:40;;;;;;;5.93;5.22;;;7.50;99.90;;;;;;5067255;28;20498;-55
2022/02/11 01:11:17;;;;;;;5.47;4.78;;;7.50;99.90;;;;;;5064278;28;20203;-54
2022/02/11 01:13:44;;;;;;;6.18;5.57;;;7.70;99.90;;;;;;5062788;28;20242;-55
2022/02/11 01:16:18;;;;;;;7.38;5.78;;;7.70;99.90;;;;;;5060847;28;20548;-59
2022/02/11 01:18:53;;;;;;;7.30;5.38;;;7.80;99.90;;;;;;5063999;28;20195;-54
2022/02/11 01:21:28;;;;;;;7.15;4.80;;;7.80;99.90;;;;;;5067611;28;20217;-50
2022/02/11 01:24:45;;;;;;;6.70;4.97;;;7.50;99.90;;;;;;5065351;28;20313;-51
2022/02/11 01:53:33;;;;;;;7.07;5.70;;;7.50;99.90;;;;;;5063761;28;20227;-50
2022/02/11 01:56:10;;;;;;;7.57;6.75;;;7.60;99.90;;;;;;5065508;28;20226;-54
2022/02/11 02:12:32;;;;;;;7.30;5.75;;;7.30;99.90;;;;;;4983481;28;20212;-54
2022/02/11 02:38:47;;;;;;;8.80;5.60;;;7.20;99.90;;;;;;5065089;28;20203;-51
2022/02/11 02:58:12;;;;;;;8.55;5.97;;;7.30;99.90;;;;;;5068159;28;20218;-54
2022/02/11 03:01:27;;;;;;;4.93;3.95;;;7.30;99.90;;;;;;5064924;28;20206;-56
2022/02/11 03:15:30;;;;;;;17.13;6.30;;;6.80;99.90;;;;;;5063824;28;20272;-51
2022/02/11 03:51:22;;;;;;;5.72;4.82;;;7.50;99.90;;;;;;5068229;28;20246;-52
2022/02/11 04:22:12;;;;;;;10.73;6.18;;;7.20;99.90;;;;;;5065600;28;20217;-50
2022/02/11 05:00:01;;;;;;;8.95;7.13;;;6.30;99.90;;;;;;5087606;28;20511;-48
2022/02/11 05:02:30;;;;;;;8.80;7.40;;;6.30;99.90;;;;;;5072332;28;20199;-49
2022/02/11 05:05:04;;;;;;;12.27;8.18;;;6.40;99.90;;;;;;5088002;28;20219;-49
2022/02/11 05:07:32;;;;;;;10.40;6.95;;;6.30;99.90;;;;;;5085022;28;20199;-49
2022/02/11 05:10:01;;;;;;;12.38;8.40;;;6.40;99.90;;;;;;5087972;28;20211;-48
2022/02/11 05:12:28;;;;;;;13.73;9.00;;;6.30;99.90;;;;;;5084631;28;20202;-50
2022/02/11 05:14:55;;;;;;;9.20;7.65;;;6.40;99.90;;;;;;5086953;28;20272;-47
2022/02/11 05:17:22;;;;;;;13.88;9.15;;;6.50;99.90;;;;;;5085294;28;20317;-46
2022/02/11 05:19:49;;;;;;;13.30;9.90;;;6.40;99.90;;;;;;5088848;28;20490;-52
2022/02/11 05:22:16;;;;;;;10.10;6.55;;;6.40;99.90;;;;;;5089477;28;20198;-51
2022/02/11 05:24:44;;;;;;;9.40;7.20;;;6.20;99.90;;;;;;5087397;28;20354;-51
2022/02/11 05:27:11;;;;;;;10.43;7.22;;;6.00;99.90;;;;;;5087822;28;20205;-50
2022/02/11 05:29:38;;;;;;;9.30;6.88;;;6.10;99.90;;;;;;5084630;28;20256;-47
2022/02/11 05:32:07;;;;;;;8.02;6.68;;;5.90;99.90;;;;;;5087350;28;20206;-48
2022/02/11 05:34:34;;;;;;;8.55;5.93;;;6.00;99.90;;;;;;5086136;28;20264;-46
2022/02/11 05:37:01;;;;;;;13.00;10.02;;;5.90;99.90;;;;;;5090369;28;20248;-50
2022/02/11 05:39:29;;;;;;;17.85;8.75;;;5.80;99.90;;;;;;5066438;28;20210;-53
2022/02/11 05:41:56;;;;;;;13.85;9.70;;;5.90;99.90;;;;;;5086150;28;20206;-46
2022/02/11 05:44:24;;;;;;;14.18;9.23;;;5.90;99.90;;;;;;5084653;28;20226;-51
2022/02/11 05:46:51;;;;;;;16.55;8.60;;;5.90;99.90;;;;;;5085528;28;20508;-48
2022/02/11 05:49:19;;;;;;;13.85;9.43;;;6.00;99.90;;;;;;5085672;28;20427;-52
2022/02/11 05:51:46;;;;;;;12.38;8.48;;;6.00;99.90;;;;;;5083895;28;20213;-45
2022/02/11 05:54:13;;;;;;;17.63;9.32;;;5.80;99.90;;;;;;5086497;28;20248;-50
2022/02/11 05:56:40;;;;;;;13.55;7.47;;;5.80;99.90;;;;;;5084137;28;20423;-45
2022/02/11 05:59:08;;;;;;;11.35;8.48;;;5.90;99.90;;;;;;5084419;28;20210;-46
2022/02/11 06:01:35;;;;;;;8.55;5.30;;;5.80;99.90;;;;;;5086157;28;20216;-52
2022/02/11 06:04:03;;;;;;;4.00;2.75;;;5.60;99.90;;;;;;5086907;28;20542;-46
2022/02/11 06:06:29;;;;;;;4.03;2.85;;;5.30;99.90;;;;;;5084454;28;20198;-46
2022/02/11 06:08:57;;;;;;;3.28;2.78;;;5.40;99.90;;;;;;5086538;28;20198;-48
2022/02/11 06:11:29;;;;;;;5.75;3.30;;;5.30;99.90;;;;;;5085732;28;20214;-52
2022/02/11 06:13:56;;;;;;;3.58;3.28;;;5.40;99.90;;;;;;5073212;28;20217;-54
2022/02/11 06:16:28;;;;;;;5.95;3.10;;;5.40;99.90;;;;;;5089022;28;20212;-51
2022/02/11 06:18:55;;;;;;;4.38;3.40;;;5.20;99.90;;;;;;5090151;28;20273;-48
2022/02/11 06:21:23;;;;;;;5.50;3.28;;;5.10;99.90;;;;;;5086762;28;20389;-50
2022/02/11 06:23:55;;;;;;;5.80;3.40;;;5.00;99.90;;;;;;5087762;28;20190;-48
2022/02/11 06:26:26;;;;;;;3.78;3.40;;;5.10;99.90;;;;;;5086750;28;20292;-49
2022/02/11 06:28:55;;;;;;;4.45;3.20;;;5.30;99.90;;;;;;5093570;28;20198;-49
2022/02/11 06:31:23;;;;;;;3.65;2.85;;;5.30;99.90;;;;;;5092768;28;20233;-50
2022/02/11 06:33:51;;;;;;;5.95;3.97;;;5.20;99.90;;;;;;5086970;28;20249;-49
2022/02/11 06:36:18;;;;;;;5.57;4.63;;;5.30;99.90;;;;;;5091374;28;20550;-51
2022/02/11 06:38:48;;;;;;;5.32;3.65;;;5.20;99.90;;;;;;5077904;28;20205;-50
2022/02/11 06:41:15;;;;;;;4.03;3.53;;;5.20;99.90;;;;;;5087046;28;20272;-49
2022/02/11 06:43:42;;;;;;;6.20;3.70;;;5.20;99.90;;;;;;5083408;28;20628;-51
2022/02/11 06:46:10;;;;;;;6.50;4.25;;;5.20;99.90;;;;;;5086664;28;20201;-50
2022/02/11 06:48:37;;;;;;;4.25;3.60;;;5.10;99.90;;;;;;5083186;28;20214;-51
2022/02/11 06:51:04;;;;;;;6.82;4.85;;;5.00;99.90;;;;;;5074358;28;20572;-50
2022/02/11 06:53:32;;;;;;;5.38;4.40;;;5.00;99.90;;;;;;5084973;28;20212;-50
2022/02/11 06:56:00;;;;;;;5.40;4.43;;;4.90;99.90;;;;;;5087960;28;20271;-49
2022/02/11 06:58:27;;;;;;;11.60;5.60;;;5.10;99.90;;;;;;5083848;28;20206;-53
2022/02/11 07:00:56;;;;;;;4.18;3.22;;;5.20;99.90;;;;;;5085448;28;20582;-47
2022/02/11 07:03:24;;;;;;;7.13;4.13;;;5.00;99.90;;;;;;5084200;28;20457;-47
2022/02/11 07:05:54;;;;;;;2.78;2.58;;;4.90;99.90;;;;;;5084725;28;20221;-45
2022/02/11 07:08:21;;;;;;;4.30;2.90;;;4.80;99.90;;;;;;5084520;28;20205;-49
2022/02/11 07:10:49;;;;;;;3.25;2.95;;;4.80;99.90;;;;;;5084358;28;20230;-47
2022/02/11 07:13:17;;;;;;;3.83;2.67;;;4.80;99.90;;;;;;5087808;28;20206;-54
2022/02/11 07:15:45;;;;;;;3.28;2.95;;;4.70;99.90;;;;;;5084631;28;20597;-45
2022/02/11 07:18:12;;;;;;;2.55;2.35;;;4.70;99.90;;;;;;5082486;28;20201;-45
2022/02/11 07:20:40;;;;;;;5.57;2.97;;;4.80;99.90;;;;;;5081837;28;20205;-48
2022/02/11 07:23:08;;;;;;;2.60;2.03;;;4.80;99.90;;;;;;5082014;28;20247;-50
2022/02/11 07:25:35;;;;;;;21.10;3.10;;;4.80;99.90;;;;;;5081562;28;20475;-49
2022/02/11 07:28:02;;;;;;;3.00;2.50;;;4.90;99.90;;;;;;5081533;28;20433;-47
2022/02/11 07:30:30;;;;;;;2.63;2.42;;;4.90;99.90;;;;;;5082142;28;20430;-48
2022/02/11 07:32:58;;;;;;;2.00;1.80;;;4.80;99.90;;;;;;5081569;28;20404;-50
2022/02/11 07:35:26;;;;;;;4.40;1.95;;;4.70;99.90;;;;;;5087403;28;20238;-48
2022/02/11 07:37:53;;;;;;;3.50;1.90;;;4.50;99.90;;;;;;5084366;28;20205;-50
2022/02/11 07:40:21;;;;;;;1.88;1.58;;;4.40;99.90;;;;;;5081263;28;20210;-48
2022/02/11 07:42:51;;;;;;;6.20;2.08;;;4.20;99.90;;;;;;5081621;28;20513;-46
2022/02/11 07:45:22;;;;;;;4.95;2.38;;;4.10;99.90;;;;;;5064334;28;20407;-47
2022/02/11 07:47:50;;;;;;;2.40;2.20;;;4.20;99.90;;;;;;5082076;28;20213;-48
2022/02/11 07:50:17;;;;;;;2.80;1.70;;;4.20;99.90;;;;;;5083550;28;20201;-51
2022/02/11 07:52:45;;;;;;;1.40;1.30;;;4.30;99.90;;;;;;5082862;28;20524;-50
2022/02/11 07:55:12;;;;;;;2.88;1.83;;;4.30;99.90;;;;;;5065757;28;20234;-45
2022/02/11 07:57:40;;;;;;;1.75;1.65;;;4.20;99.90;;;;;;5068656;28;20234;-48
2022/02/11 08:00:07;;;;;;;0.98;0.80;;;4.20;99.90;;;;;;5083387;28;20236;-48
2022/02/11 08:02:36;;;;;;;1.20;1.08;;;4.10;99.90;;;;;;5081185;28;20269;-50
2022/02/11 08:05:04;;;;;;;1.20;1.13;;;4.00;99.90;;;;;;5101736;28;20250;-46
2022/02/11 08:07:31;;;;;;;2.95;1.70;;;3.80;99.90;;;;;;5101108;28;20219;-47
2022/02/11 08:09:59;;;;;;;2.13;1.92;;;3.80;99.90;;;;;;5101799;28;20504;-49
2022/02/11 08:12:26;;;;;;;1.95;1.77;;;3.70;99.90;;;;;;5101776;28;20304;-48
2022/02/11 08:14:55;;;;;;;4.32;2.72;;;3.40;99.90;;;;;;5104726;28;20216;-46
2022/02/11 08:17:24;;;;;;;1.75;1.65;;;3.30;99.90;;;;;;5120839;28;20526;-45
2022/02/11 08:19:51;;;;;;;2.75;2.40;;;3.10;99.90;;;;;;5103158;28;20204;-47
2022/02/11 08:22:18;;;;;;;2.05;1.80;;;3.10;99.90;;;;;;5101683;28;20207;-46
2022/02/11 08:24:46;;;;;;;1.88;1.60;;;3.10;99.90;;;;;;5100663;28;20297;-47
2022/02/11 08:27:14;;;;;;;3.85;2.72;;;3.20;99.90;;;;;;5101780;28;20242;-48
2022/02/11 08:29:42;;;;;;;2.45;1.63;;;3.20;99.90;;;;;;5101592;28;20233;-49
2022/02/11 08:32:10;;;;;;;2.38;2.10;;;3.00;99.90;;;;;;5101234;28;20558;-47
2022/02/11 08:34:39;;;;;;;3.60;1.88;;;2.80;99.90;;;;;;5095841;28;20428;-50
2022/02/11 08:37:07;;;;;;;4.13;2.70;;;2.70;99.90;;;;;;5100259;28;20199;-50
2022/02/11 08:39:38;;;;;;;4.80;3.20;;;2.70;99.90;;;;;;5101429;28;20195;-46
2022/02/11 08:42:07;;;;;;;4.57;2.97;;;3.00;99.90;;;;;;5101017;28;20275;-49
2022/02/11 08:44:35;;;;;;;3.35;2.35;;;3.10;99.90;;;;;;5082686;28;20226;-48
2022/02/11 08:47:03;;;;;;;2.67;2.45;;;3.20;99.90;;;;;;5101378;28;20227;-50
2022/02/11 08:49:31;;;;;;;2.03;1.50;;;3.30;99.90;;;;;;5101744;28;20195;-47
2022/02/11 08:52:00;;;;;;;1.90;1.80;;;3.30;99.90;;;;;;5101203;28;20228;-47
2022/02/11 08:54:27;;;;;;;2.78;1.98;;;3.10;99.90;;;;;;5100899;28;20215;-48
2022/02/11 08:56:55;;;;;;;3.42;2.30;;;3.00;99.90;;;;;;5109431;28;20226;-48
2022/02/11 08:59:24;;;;;;;1.40;1.30;;;3.00;99.90;;;;;;5109198;28;20264;-46
2022/02/11 09:01:51;;;;;;;1.90;1.80;;;3.10;99.90;;;;;;5100227;28;20290;-46
2022/02/11 09:04:18;;;;;;;2.63;1.95;;;3.10;99.90;;;;;;5113292;28;20231;-46
2022/02/11 09:06:46;;;;;;;5.20;2.53;;;3.20;99.90;;;;;;5102386;28;20250;-46
2022/02/11 09:09:15;;;;;;;3.42;2.00;;;3.20;99.90;;;;;;5108199;28;20203;-50
2022/02/11 09:11:44;;;;;;;4.82;3.22;;;3.30;99.90;;;;;;5101168;28;20278;-45
2022/02/11 09:14:11;;;;;;;2.40;2.00;;;3.20;99.90;;;;;;5120748;28;20370;-50
2022/02/11 09:16:39;;;;;;;3.85;2.35;;;3.20;99.90;;;;;;5090145;28;20299;-46
2022/02/11 09:19:09;;;;;;;2.00;1.77;;;3.20;99.90;;;;;;5103532;28;20203;-47
2022/02/11 09:21:38;;;;;;;1.58;1.48;;;3.10;99.90;;;;;;5096281;28;20226;-46
2022/02/11 09:24:06;;;;;;;2.70;1.85;;;3.10;99.90;;;;;;5084613;28;20238;-46
2022/02/11 09:26:34;;;;;;;3.70;2.38;;;3.10;99.90;;;;;;5083877;28;20214;-51
2022/02/11 09:29:05;;;;;;;3.97;2.08;;;3.20;99.90;;;;;;5091227;28;20529;-46
2022/02/11 09:31:33;;;;;;;2.08;1.38;;;3.30;99.90;;;;;;5083497;28;20203;-46
2022/02/11 09:34:04;;;;;;;2.60;2.40;;;3.30;99.90;;;;;;5085411;28;20428;-49
2022/02/11 09:36:34;;;;;;;1.88;1.67;;;3.20;99.90;;;;;;5082901;28;20254;-48
2022/02/11 09:39:04;;;;;;;3.10;1.90;;;3.20;99.90;;;;;;5085169;28;20207;-47
2022/02/11 09:41:32;;;;;;;3.15;2.28;;;3.30;99.90;;;;;;5065527;28;20200;-49
2022/02/11 09:44:01;;;;;;;2.63;2.40;;;3.40;99.90;;;;;;5092365;28;20230;-46
2022/02/11 09:46:30;;;;;;;1.70;1.60;;;3.70;99.90;;;;;;5088039;28;20278;-52
2022/02/11 09:48:59;;;;;;;2.25;1.65;;;3.80;99.90;;;;;;5098822;28;20271;-47
2022/02/11 09:51:26;;;;;;;3.30;2.60;;;3.80;99.90;;;;;;5090923;28;20559;-50
2022/02/11 09:53:53;;;;;;;2.53;2.08;;;3.70;99.90;;;;;;5083007;28;20224;-48
2022/02/11 09:56:20;;;;;;;5.50;2.30;;;3.50;99.90;;;;;;5093794;28;20233;-52
2022/02/11 09:59:05;;;;;;;2.50;2.03;;;3.50;99.90;;;;;;5100152;28;20200;-46
2022/02/11 10:01:32;;;;;;;2.72;2.40;;;3.60;99.90;;;;;;5100290;28;20262;-50
2022/02/11 10:04:09;;;;;;;1.80;1.70;;;3.60;99.90;;;;;;5100106;28;20267;-51
2022/02/11 10:06:37;;;;;;;2.10;1.90;;;3.50;99.90;;;;;;5099579;28;20199;-49
2022/02/11 10:09:05;;;;;;;5.95;2.28;;;3.40;99.90;;;;;;5086721;28;20215;-47
2022/02/11 10:11:32;;;;;;;2.67;2.35;;;3.30;99.90;;;;;;5099444;28;20206;-50
2022/02/11 10:14:24;;;;;;;4.05;2.42;;;3.40;99.90;;;;;;5099923;28;20223;-50
2022/02/11 10:17:16;;;;;;;3.25;2.95;;;3.50;99.90;;;;;;5097402;28;20566;-47
2022/02/11 10:19:52;;;;;;;4.25;3.63;;;3.60;99.90;;;;;;5099617;28;20234;-49
2022/02/11 10:22:22;;;;;;;5.25;3.75;;;3.70;99.90;;;;;;5099999;28;20199;-52
2022/02/11 10:24:50;;;;;;;2.95;2.75;;;3.80;99.90;;;;;;5099927;28;20766;-47
2022/02/11 10:27:27;;;;;;;3.88;3.10;;;3.80;99.90;;;;;;5101052;28;20197;-52
2022/02/11 10:30:09;;;;;;;3.45;2.35;;;3.90;99.90;;;;;;5099693;28;20303;-46
2022/02/11 10:32:46;;;;;;;4.15;3.10;;;3.90;99.90;;;;;;5099233;28;20391;-47
2022/02/11 10:35:17;;;;;;;3.33;3.13;;;3.90;99.90;;;;;;5098802;28;20274;-51
2022/02/11 10:38:10;;;;;;;4.15;3.50;;;4.00;99.90;;;;;;5099191;28;20209;-49
2022/02/11 10:40:40;;;;;;;5.45;4.88;;;3.80;99.90;;;;;;5099154;28;20197;-52
2022/02/11 10:43:23;;;;;;;5.80;4.20;;;3.80;99.90;;;;;;5099633;28;20223;-46
2022/02/11 10:45:50;;;;;;;6.55;4.75;;;3.80;99.90;;;;;;5098645;28;20227;-51
2022/02/11 10:48:23;;;;;;;4.22;3.83;;;3.70;99.90;;;;;;5098858;28;20214;-51
2022/02/11 10:50:55;;;;;;;4.53;4.13;;;3.50;99.90;;;;;;5097559;28;20201;-46
2022/02/11 10:53:28;;;;;;;3.35;3.05;;;3.50;99.90;;;;;;5097946;28;20228;-51
2022/02/11 10:56:03;;;;;;;5.30;3.90;;;3.50;99.90;;;;;;5098000;28;20225;-46
2022/02/11 10:58:32;;;;;;;5.72;5.22;;;3.50;99.90;;;;;;5098573;28;20211;-51
2022/02/11 11:01:01;;;;;;;3.67;3.35;;;3.30;99.90;;;;;;5098552;28;20279;-46
2022/02/11 11:03:31;;;;;;;4.10;3.47;;;3.30;99.90;;;;;;5098828;28;20453;-52
2022/02/11 11:06:04;;;;;;;5.93;4.32;;;3.20;99.90;;;;;;5099315;28;20460;-53
2022/02/11 11:08:37;;;;;;;3.65;3.35;;;3.00;99.90;;;;;;5099129;28;20200;-52
2022/02/11 11:11:09;;;;;;;4.50;3.40;;;3.10;99.90;;;;;;5099129;28;20231;-49
2022/02/11 11:13:38;;;;;;;5.65;4.68;;;3.10;99.90;;;;;;5081416;28;20204;-51
2022/02/11 11:16:11;;;;;;;7.72;6.13;;;3.10;99.90;;;;;;5102827;28;20624;-50
2022/02/11 11:18:39;;;;;;;7.25;5.20;;;3.00;99.90;;;;;;5100045;28;20233;-49
2022/02/11 11:21:09;;;;;;;6.38;5.78;;;3.10;99.90;;;;;;5099354;28;20199;-52
2022/02/11 11:23:44;;;;;;;9.30;7.20;;;3.10;99.90;;;;;;5081361;28;20571;-50
2022/02/11 11:26:12;;;;;;;11.70;8.65;;;3.20;99.90;;;;;;5100157;28;20266;-49
2022/02/11 11:28:45;;;;;;;8.73;7.07;;;3.10;99.90;;;;;;5095695;28;20290;-47
2022/02/11 11:31:18;;;;;;;10.05;7.35;;;3.20;99.90;;;;;;5095013;28;20411;-49
2022/02/11 11:33:45;;;;;;;9.82;7.70;;;3.30;99.90;;;;;;5094732;28;20202;-55
2022/02/11 11:36:17;;;;;;;7.50;6.70;;;3.30;99.90;;;;;;5111289;28;20222;-49
2022/02/11 11:38:57;;;;;;;8.95;6.78;;;3.30;99.90;;;;;;5115555;28;20206;-48
2022/02/11 11:41:33;;;;;;;7.55;6.72;;;3.40;99.90;;;;;;5118728;28;20195;-47
2022/02/11 11:44:17;;;;;;;7.15;5.85;;;3.40;99.90;;;;;;5118655;28;20535;-52
2022/02/11 11:46:51;;;;;;;7.78;6.07;;;3.60;99.90;;;;;;5100470;28;20285;-49
2022/02/11 11:49:21;;;;;;;8.35;6.85;;;3.60;99.90;;;;;;5100426;28;20236;-48
2022/02/11 11:51:49;;;;;;;7.65;5.75;;;3.70;99.90;;;;;;5097859;28;20406;-47
2022/02/11 11:54:16;;;;;;;7.60;5.95;;;3.60;99.90;;;;;;5099285;28;20726;-52
2022/02/11 11:56:48;;;;;;;5.22;4.43;;;3.60;99.90;;;;;;5098625;28;20535;-50
2022/02/11 11:59:24;;;;;;;6.13;5.40;;;3.60;99.90;;;;;;5105473;28;20199;-48
2022/02/11 12:02:11;;;;;;;7.35;6.22;;;3.60;99.90;;;;;;5112226;28;20271;-49
2022/02/11 12:04:41;;;;;;;6.90;4.82;;;3.70;99.90;;;;;;5101888;28;20290;-55
2022/02/11 12:07:14;;;;;;;5.97;4.03;;;3.90;99.90;;;;;;5102559;28;20201;-48
2022/02/11 12:09:44;;;;;;;6.53;4.68;;;4.00;99.90;;;;;;5102000;28;20208;-53
2022/02/11 12:12:13;;;;;;;8.02;4.38;;;4.00;99.90;;;;;;5102130;28;20243;-50
2022/02/11 12:14:42;;;;;;;6.35;3.90;;;4.00;99.90;;;;;;5101363;28;20223;-50
2022/02/11 12:17:12;;;;;;;3.22;2.95;;;3.90;99.90;;;;;;5101588;28;20222;-49
2022/02/11 12:19:40;;;;;;;4.75;3.90;;;3.90;99.90;;;;;;5101889;28;20218;-53
2022/02/11 12:22:08;;;;;;;4.13;3.75;;;4.10;99.90;;;;;;5101597;28;20415;-54
2022/02/11 12:27:31;;;;;;;4.00;3.53;;;4.20;99.90;;;;;;5107107;28;20211;-48
2022/02/11 12:30:07;;;;;;;3.72;3.38;;;4.30;99.90;;;;;;5088928;28;20231;-50
2022/02/11 12:32:40;;;;;;;3.22;2.92;;;4.30;99.90;;;;;;5082496;28;20233;-50
2022/02/11 12:35:10;;;;;;;4.65;3.22;;;4.30;99.90;;;;;;5094318;28;20232;-47
2022/02/11 12:37:39;;;;;;;4.13;3.53;;;4.20;99.90;;;;;;5108550;28;20291;-49
2022/02/11 12:40:10;;;;;;;4.80;4.32;;;4.20;99.90;;;;;;5113926;28;20429;-49
2022/02/11 12:42:46;;;;;;;4.38;3.85;;;4.20;99.90;;;;;;5121971;28;20204;-50
2022/02/11 12:45:24;;;;;;;5.35;4.85;;;4.10;99.90;;;;;;5121871;28;20441;-48
2022/02/11 12:47:54;;;;;;;5.38;4.82;;;4.00;99.90;;;;;;5121171;28;20249;-46
2022/02/11 12:50:35;;;;;;;5.50;4.95;;;3.90;99.90;;;;;;5121523;28;20253;-50
2022/02/11 12:53:08;;;;;;;10.52;4.57;;;3.90;99.90;;;;;;5121955;28;20436;-52
2022/02/11 12:55:38;;;;;;;4.97;4.05;;;3.90;99.90;;;;;;5122114;28;20228;-52
2022/02/11 12:58:11;;;;;;;8.07;4.85;;;4.00;99.90;;;;;;5122582;28;20437;-50
2022/02/11 13:00:40;;;;;;;7.22;5.82;;;4.10;99.90;;;;;;5121736;28;20208;-47
2022/02/11 13:03:10;;;;;;;11.32;5.55;;;4.10;99.90;;;;;;5122054;28;20196;-47
2022/02/11 13:05:51;;;;;;;7.85;5.30;;;4.10;99.90;;;;;;5121771;28;20261;-49
2022/02/11 13:08:26;;;;;;;8.50;6.03;;;4.10;99.90;;;;;;5121309;28;20200;-53
2022/02/11 13:11:05;;;;;;;8.50;6.90;;;4.00;99.90;;;;;;5121189;28;20196;-49
2022/02/11 13:13:33;;;;;;;7.40;4.85;;;3.80;99.90;;;;;;5121264;28;20422;-46
2022/02/11 13:16:05;;;;;;;7.68;5.38;;;3.70;99.90;;;;;;5110242;28;20426;-47
2022/02/11 13:18:36;;;;;;;10.95;7.93;;;3.70;99.90;;;;;;5107497;28;20369;-50
2022/02/11 13:21:05;;;;;;;7.18;5.20;;;3.70;99.90;;;;;;5108894;28;20208;-50
2022/02/11 13:23:33;;;;;;;6.13;5.22;;;3.80;99.90;;;;;;5111532;28;20415;-55
2022/02/11 13:26:04;;;;;;;6.28;4.95;;;3.80;99.90;;;;;;5101957;28;20544;-51
2022/02/11 13:28:46;;;;;;;8.23;5.80;;;3.70;99.90;;;;;;5084448;28;21064;-47
2022/02/11 13:31:14;;;;;;;5.32;4.13;;;3.70;99.90;;;;;;5098887;28;20311;-48
2022/02/11 13:33:42;;;;;;;3.60;3.30;;;3.80;99.90;;;;;;5113953;28;20204;-54
2022/02/11 13:36:12;;;;;;;8.75;3.88;;;3.80;99.90;;;;;;5097070;28;20295;-50
2022/02/11 13:38:47;;;;;;;4.40;2.88;;;3.90;99.90;;;;;;5096255;28;20238;-52
2022/02/11 13:41:15;;;;;;;2.85;2.65;;;3.80;99.90;;;;;;5099107;28;20524;-46
2022/02/11 13:43:53;;;;;;;5.10;3.58;;;3.90;99.90;;;;;;5100024;28;20529;-45
2022/02/11 13:46:48;;;;;;;6.05;5.45;;;4.00;99.90;;;;;;5105675;28;20207;-50
2022/02/11 13:49:20;;;;;;;2.97;2.78;;;4.00;99.90;;;;;;5097431;28;20469;-46
2022/02/11 13:54:59;;;;;;;3.97;3.42;;;4.40;99.90;;;;;;5105616;28;20230;-49
2022/02/11 13:57:30;;;;;;;2.90;2.70;;;4.40;99.90;;;;;;5109628;28;20231;-52
2022/02/11 14:00:36;;;;;;;3.42;3.13;;;4.40;99.90;;;;;;5101644;28;20248;-46
2022/02/11 14:03:04;;;;;;;7.47;3.92;;;4.40;99.90;;;;;;5100219;28;20200;-45
2022/02/11 14:05:45;;;;;;;3.80;3.15;;;4.30;99.90;;;;;;5099724;28;20296;-46
2022/02/11 14:08:13;;;;;;;3.63;3.33;;;4.30;99.90;;;;;;5100196;28;20196;-46
2022/02/11 14:10:43;;;;;;;5.38;3.75;;;4.40;99.90;;;;;;5099471;28;20204;-50
2022/02/11 14:13:10;;;;;;;6.65;3.50;;;4.50;99.90;;;;;;5099871;28;20418;-46
2022/02/11 14:15:41;;;;;;;7.78;3.80;;;4.60;99.90;;;;;;5099798;28;20222;-47
2022/02/11 14:18:08;;;;;;;6.10;3.22;;;4.50;99.90;;;;;;5091237;28;20225;-48
2022/02/11 14:20:37;;;;;;;4.68;4.07;;;4.30;99.90;;;;;;5099002;28;20202;-54
2022/02/11 14:23:12;;;;;;;3.28;2.97;;;4.10;99.90;;;;;;5099608;28;20243;-53
2022/02/11 14:25:42;;;;;;;5.63;3.58;;;3.90;99.90;;;;;;5099510;28;20289;-47
2022/02/11 14:28:11;;;;;;;4.65;3.67;;;3.90;99.90;;;;;;5099889;28;20200;-49
2022/02/11 14:30:43;;;;;;;3.70;3.38;;;3.90;99.90;;;;;;5098956;28;20243;-52
2022/02/11 14:33:13;;;;;;;4.40;3.25;;;4.10;99.90;;;;;;5100029;28;20221;-45
2022/02/11 14:35:40;;;;;;;4.03;3.28;;;4.10;99.90;;;;;;5094178;28;20497;-53
2022/02/11 14:38:08;;;;;;;6.55;3.53;;;4.10;99.90;;;;;;5090951;28;20224;-45
2022/02/11 14:40:38;;;;;;;6.18;3.80;;;4.10;99.90;;;;;;5093546;28;20430;-50
2022/02/11 14:43:06;;;;;;;6.60;3.95;;;4.10;99.90;;;;;;5088079;28;20442;-51
2022/02/11 14:45:33;;;;;;;5.95;4.20;;;4.00;99.90;;;;;;5097952;28;20216;-53
2022/02/11 14:48:01;;;;;;;4.90;4.50;;;3.90;99.90;;;;;;5102012;28;20369;-47
2022/02/11 14:50:30;;;;;;;4.85;4.30;;;4.00;99.90;;;;;;5114029;28;20237;-55
2022/02/11 14:52:58;;;;;;;4.80;4.30;;;3.90;99.90;;;;;;5102337;28;20480;-51
2022/02/11 14:55:26;;;;;;;5.18;4.43;;;4.00;99.90;;;;;;5081782;28;20399;-47
2022/02/11 14:57:57;;;;;;;4.70;4.30;;;4.00;99.90;;;;;;5083520;28;20225;-46
2022/02/11 15:00:24;;;;;;;4.30;3.78;;;3.80;99.90;;;;;;5078872;28;20618;-48
2022/02/11 15:02:52;;;;;;;6.50;4.72;;;3.70;99.90;;;;;;5093606;28;20254;-46
2022/02/11 15:05:19;;;;;;;5.30;4.80;;;3.70;99.90;;;;;;5081931;28;20315;-50
2022/02/11 15:07:48;;;;;;;4.80;4.20;;;3.70;99.90;;;;;;5100561;28;20201;-48
2022/02/11 15:10:16;;;;;;;6.90;4.95;;;3.70;99.90;;;;;;5100386;28;20200;-51
2022/02/11 15:12:43;;;;;;;6.70;5.00;;;3.70;99.90;;;;;;5099601;28;20201;-48
2022/02/11 15:15:10;;;;;;;6.05;5.53;;;3.70;99.90;;;;;;5103928;28;20224;-49
2022/02/11 15:17:38;;;;;;;11.70;5.75;;;3.70;99.90;;;;;;5099411;28;20280;-55
2022/02/11 15:20:05;;;;;;;6.07;5.45;;;3.70;99.90;;;;;;5100675;28;20383;-46
2022/02/11 15:22:33;;;;;;;7.38;5.10;;;3.70;99.90;;;;;;5096601;28;20212;-46
2022/02/11 15:25:00;;;;;;;7.53;6.10;;;3.70;99.90;;;;;;5099162;28;20264;-50
2022/02/11 15:27:28;;;;;;;10.52;7.03;;;3.80;99.90;;;;;;5099610;28;20255;-52
2022/02/11 15:29:56;;;;;;;8.50;6.57;;;3.70;99.90;;;;;;5098805;28;20204;-54
2022/02/11 15:32:23;;;;;;;8.30;7.20;;;3.60;99.90;;;;;;5091402;28;20302;-48
2022/02/11 15:34:50;;;;;;;9.70;7.30;;;3.60;99.90;;;;;;5101765;28;20240;-48
2022/02/11 15:37:17;;;;;;;8.90;6.60;;;3.60;99.90;;;;;;5093889;28;20259;-52
2022/02/11 15:39:45;;;;;;;7.70;6.53;;;3.70;99.90;;;;;;5102400;28;20196;-49
2022/02/11 15:42:12;;;;;;;9.70;5.80;;;3.80;99.90;;;;;;5102117;28;20197;-48
2022/02/11 15:44:39;;;;;;;7.97;6.57;;;4.00;99.90;;;;;;5101305;28;20581;-48
2022/02/11 15:47:06;;;;;;;7.38;6.63;;;4.10;99.90;;;;;;5101060;28;20208;-51
2022/02/11 15:49:33;;;;;;;10.43;6.63;;;4.30;99.90;;;;;;5101490;28;20437;-47
2022/02/11 15:52:00;;;;;;;7.95;7.10;;;4.40;99.90;;;;;;5082549;28;20250;-51
2022/02/11 15:54:30;;;;;;;10.63;8.40;;;4.50;99.90;;;;;;5102052;28;20228;-47
2022/02/11 15:56:57;;;;;;;11.65;9.18;;;4.30;99.90;;;;;;5102298;28;20392;-50
2022/02/11 15:59:24;;;;;;;17.30;11.73;;;4.30;99.90;;;;;;5101137;28;20204;-50
2022/02/11 16:01:52;;;;;;;13.50;8.48;;;4.10;99.90;;;;;;5102341;28;20210;-47
2022/02/11 16:04:21;;;;;;;10.88;7.53;;;4.00;99.90;;;;;;5101754;28;20217;-50
2022/02/11 16:06:48;;;;;;;11.57;8.50;;;4.00;99.90;;;;;;5101853;28;20283;-49
2022/02/11 16:09:16;;;;;;;10.95;7.78;;;4.00;99.90;;;;;;5101927;28;20380;-49
2022/02/11 16:11:43;;;;;;;10.40;7.00;;;3.80;99.90;;;;;;5102078;28;20227;-47
2022/02/11 16:14:15;;;;;;;11.05;6.28;;;3.70;99.90;;;;;;5102317;28;20228;-48
2022/02/11 16:16:44;;;;;;;8.10;6.40;;;3.70;99.90;;;;;;5101751;28;20224;-49
2022/02/11 16:19:11;;;;;;;6.28;5.68;;;3.50;99.90;;;;;;5102197;28;20242;-48
2022/02/11 16:21:39;;;;;;;10.50;6.97;;;3.50;99.90;;;;;;5101648;28;20196;-49
2022/02/11 16:24:07;;;;;;;10.52;6.90;;;3.40;99.90;;;;;;5102698;28;20227;-51
2022/02/11 16:26:35;;;;;;;13.10;7.47;;;3.40;99.90;;;;;;5101815;28;20197;-53
2022/02/11 16:29:03;;;;;;;11.95;6.05;;;3.30;99.90;;;;;;5102245;28;20267;-46
2022/02/11 16:31:30;;;;;;;7.68;4.93;;;3.30;99.90;;;;;;5102613;28;20200;-50
2022/02/11 16:33:58;;;;;;;8.98;6.82;;;3.20;99.90;;;;;;5101951;28;20231;-48
2022/02/11 16:36:27;;;;;;;11.73;6.90;;;3.20;99.90;;;;;;5101867;28;20208;-47
2022/02/11 16:38:55;;;;;;;9.90;6.78;;;3.10;99.90;;;;;;5101362;28;20495;-47
2022/02/11 16:41:23;;;;;;;6.68;5.88;;;3.00;99.90;;;;;;5101484;28;20199;-50
2022/02/11 16:43:52;;;;;;;8.25;6.20;;;2.80;99.90;;;;;;5097907;28;20257;-48
2022/02/11 16:46:20;;;;;;;12.75;8.13;;;2.70;99.90;;;;;;5085336;28;20205;-49
2022/02/11 16:48:47;;;;;;;8.70;6.30;;;2.70;99.90;;;;;;5099124;28;20204;-49
2022/02/11 16:51:15;;;;;;;11.82;7.53;;;2.70;99.90;;;;;;5101254;28;20195;-52
2022/02/11 16:53:42;;;;;;;10.38;9.27;;;2.70;99.90;;;;;;5095735;28;20203;-47
2022/02/11 16:56:09;;;;;;;8.10;7.13;;;2.70;99.90;;;;;;5100831;28;20252;-48
2022/02/11 16:58:37;;;;;;;18.10;8.13;;;2.70;99.90;;;;;;5101531;28;20230;-48
2022/02/11 17:01:04;;;;;;;16.33;7.30;;;2.60;99.90;;;;;;5100874;28;20231;-47
2022/02/11 17:03:32;;;;;;;13.50;8.13;;;2.60;99.90;;;;;;5101032;28;20207;-45
2022/02/11 17:05:59;;;;;;;10.25;6.95;;;2.40;99.90;;;;;;5100759;28;20195;-47